Time;durP1;ratioP1;P1;durP2;ratioP2;P2;SDS_P1;SDS_P2;PMS_P1;PMS_P2;Temp;Humidity;BMP_temperature;BMP_pressure;BME280_temperature;BME280_humidity;BME280_pressure;Samples;Min_cycle;Max_cycle;Signal;HPM_P1;HPM_P2
2023/04/20 00:00:22;;;;;;;;;31.75;30.00;;;;;11.84;53.97;99095.81;5072755;28;8899;-73
2023/04/20 00:03:11;;;;;;;;;28.75;27.25;;;;;12.03;53.39;99094.31;5076128;28;8853;-77
2023/04/20 00:05:41;;;;;;;;;36.00;30.20;;;;;12.11;53.27;99092.25;5091640;28;9587;-75
2023/04/20 00:08:11;;;;;;;;;32.40;30.40;;;;;12.19;53.52;99091.97;5091432;28;9611;-73
2023/04/20 00:10:40;;;;;;;;;29.00;27.20;;;;;12.14;53.16;99092.16;5069935;28;8858;-74
2023/04/20 00:13:08;;;;;;;;;33.00;30.60;;;;;11.57;54.75;99093.16;5071105;28;8889;-72
2023/04/20 00:15:37;;;;;;;;;25.80;25.60;;;;;10.93;56.55;99101.25;5071488;28;8870;-74
2023/04/20 00:18:06;;;;;;;;;27.00;25.80;;;;;11.30;55.90;99090.47;5071326;28;8896;-75
2023/04/20 00:20:35;;;;;;;;;26.20;24.20;;;;;11.33;55.40;99081.63;5070022;28;8915;-72
2023/04/20 00:23:04;;;;;;;;;27.20;23.80;;;;;11.41;55.10;99089.28;5073757;28;8864;-76
2023/04/20 00:25:35;;;;;;;;;29.60;27.00;;;;;11.62;54.78;99088.59;5091335;28;8852;-73
2023/04/20 00:28:04;;;;;;;;;29.20;25.80;;;;;11.53;55.06;99091.53;5091512;28;8855;-72
2023/04/20 00:30:34;;;;;;;;;32.20;30.20;;;;;11.54;55.05;99094.13;5090352;28;8870;-72
2023/04/20 00:33:04;;;;;;;;;28.20;27.40;;;;;11.53;54.94;99089.75;5056574;28;8970;-74
2023/04/20 00:35:33;;;;;;;;;26.60;25.80;;;;;11.66;54.61;99090.22;5056065;28;8863;-73
2023/04/20 00:38:02;;;;;;;;;34.40;31.40;;;;;11.26;55.06;99088.00;5090365;28;8936;-73
2023/04/20 00:40:31;;;;;;;;;27.80;27.20;;;;;11.11;56.16;99087.56;5056182;28;8944;-72
2023/04/20 00:43:10;;;;;;;;;28.80;28.00;;;;;11.56;55.01;99088.81;5090014;28;8881;-74
2023/04/20 00:45:40;;;;;;;;;32.00;28.80;;;;;11.44;54.62;99082.16;5055123;28;8878;-72
2023/04/20 00:48:10;;;;;;;;;19.80;15.60;;;;;11.46;54.65;99084.72;5089801;28;8851;-74
2023/04/20 00:50:40;;;;;;;;;29.20;28.60;;;;;11.47;55.15;99076.78;5089596;28;8855;-73
2023/04/20 00:53:09;;;;;;;;;27.00;26.20;;;;;11.59;54.60;99079.94;5089320;28;8863;-75
2023/04/20 00:55:39;;;;;;;;;30.00;29.40;;;;;11.69;54.25;99086.63;5019242;28;8830;-73
2023/04/20 00:58:08;;;;;;;;;31.80;28.40;;;;;11.70;54.27;99076.03;5070878;28;8885;-73
2023/04/20 01:00:39;;;;;;;;;28.40;25.40;;;;;11.75;54.11;99076.75;5052758;28;8850;-73
2023/04/20 01:03:08;;;;;;;;;29.40;29.40;;;;;11.79;53.93;99071.41;5070088;28;8870;-74
2023/04/20 01:05:37;;;;;;;;;32.40;31.60;;;;;11.84;53.92;99066.84;5068998;28;8846;-75
2023/04/20 01:08:06;;;;;;;;;24.60;24.00;;;;;11.87;54.02;99078.13;5039706;28;8876;-74
2023/04/20 01:10:35;;;;;;;;;28.40;27.20;;;;;11.88;54.07;99079.88;5088581;28;8936;-75
2023/04/20 01:13:07;;;;;;;;;31.75;30.75;;;;;11.90;53.42;99075.41;5072150;28;8855;-75
2023/04/20 01:15:37;;;;;;;;;24.60;23.00;;;;;11.92;53.82;99072.72;5039005;28;8844;-74
2023/04/20 01:18:06;;;;;;;;;29.40;27.80;;;;;11.91;53.30;99071.00;5081804;28;8848;-74
2023/04/20 01:20:38;;;;;;;;;29.00;28.20;;;;;11.90;53.69;99075.41;5093287;28;8859;-74
2023/04/20 01:23:07;;;;;;;;;33.25;30.75;;;;;11.95;53.67;99077.88;5089369;28;8904;-73
2023/04/20 01:25:36;;;;;;;;;30.40;27.20;;;;;11.94;53.56;99076.16;5072178;28;8864;-73
2023/04/20 01:28:05;;;;;;;;;32.40;27.20;;;;;11.91;53.61;99073.63;5088892;28;8875;-74
2023/04/20 01:30:34;;;;;;;;;28.40;27.80;;;;;11.95;53.64;99072.59;5088660;28;8852;-74
2023/04/20 01:33:04;;;;;;;;;19.00;17.80;;;;;11.92;53.49;99070.09;5068554;28;8951;-74
2023/04/20 01:35:33;;;;;;;;;31.20;31.20;;;;;11.91;53.45;99076.25;5079747;28;9620;-74
2023/04/20 01:38:02;;;;;;;;;27.60;24.60;;;;;11.83;53.87;99070.41;5068331;28;8855;-73
2023/04/20 01:40:34;;;;;;;;;24.40;24.20;;;;;11.84;53.91;99070.38;5035104;28;8838;-74
2023/04/20 01:43:02;;;;;;;;;25.80;25.20;;;;;11.79;53.85;99074.88;5050660;28;8905;-74
2023/04/20 01:45:31;;;;;;;;;30.60;26.40;;;;;11.79;53.89;99085.41;5069479;28;8886;-73
2023/04/20 01:48:01;;;;;;;;;26.20;25.20;;;;;11.62;53.95;99082.50;5085221;28;8858;-73
2023/04/20 01:50:30;;;;;;;;;26.40;25.40;;;;;11.61;54.03;99072.84;5072780;28;8844;-73
2023/04/20 01:52:58;;;;;;;;;24.00;23.00;;;;;11.56;54.38;99083.53;5089775;28;8906;-73
2023/04/20 01:55:27;;;;;;;;;29.80;27.60;;;;;11.59;54.40;99077.31;5089407;28;8890;-73
2023/04/20 01:57:58;;;;;;;;;29.80;29.40;;;;;11.56;54.23;99073.88;5089287;28;8924;-73
2023/04/20 02:00:27;;;;;;;;;27.40;26.80;;;;;11.53;54.34;99084.50;5075120;28;8839;-74
2023/04/20 02:02:56;;;;;;;;;27.80;25.40;;;;;11.52;54.33;99076.63;5033654;28;8858;-73
2023/04/20 02:05:25;;;;;;;;;32.40;30.00;;;;;11.49;54.62;99071.50;5068863;28;8981;-74
2023/04/20 02:07:54;;;;;;;;;27.40;26.60;;;;;11.48;54.44;99075.00;5067495;28;8846;-75
2023/04/20 02:10:23;;;;;;;;;31.00;28.80;;;;;11.44;54.52;99078.66;5076964;28;8890;-73
2023/04/20 02:12:51;;;;;;;;;34.00;32.75;;;;;11.40;54.80;99077.03;5074656;28;8959;-75
2023/04/20 02:15:22;;;;;;;;;26.60;25.20;;;;;11.38;55.21;99072.69;5040122;28;8904;-74
2023/04/20 02:17:51;;;;;;;;;28.20;25.40;;;;;11.31;54.85;99079.06;5091402;28;8851;-74
2023/04/20 02:20:20;;;;;;;;;30.00;28.60;;;;;11.16;55.59;99083.03;5087528;28;8872;-74
2023/04/20 02:22:49;;;;;;;;;33.40;29.60;;;;;10.30;59.21;99087.25;5070002;28;8959;-73
2023/04/20 02:25:18;;;;;;;;;29.60;29.20;;;;;10.55;58.06;99085.66;5076184;28;8856;-75
2023/04/20 02:27:47;;;;;;;;;38.50;34.00;;;;;10.60;57.57;99082.91;5091014;28;8870;-74
2023/04/20 02:30:16;;;;;;;;;33.50;29.00;;;;;10.66;57.33;99077.47;5090872;28;8847;-73
2023/04/20 02:32:46;;;;;;;;;32.00;31.40;;;;;10.73;57.10;99076.41;5091071;28;8867;-74
2023/04/20 02:35:16;;;;;;;;;33.25;32.25;;;;;10.69;57.25;99077.38;5109095;28;8868;-73
2023/04/20 02:37:45;;;;;;;;;30.33;30.33;;;;;10.74;56.81;99075.50;5109144;28;8855;-74
2023/04/20 02:40:15;;;;;;;;;30.00;29.00;;;;;10.69;57.21;99072.13;5090771;28;8832;-73
2023/04/20 02:42:43;;;;;;;;;31.50;29.50;;;;;10.72;56.90;99072.03;5056077;28;8898;-72
2023/04/20 02:45:13;;;;;;;;;32.00;31.40;;;;;10.77;56.81;99074.56;5090789;28;8855;-73
2023/04/20 02:47:44;;;;;;;;;31.80;29.40;;;;;10.77;56.62;99071.94;5056955;28;9410;-73
2023/04/20 02:50:15;;;;;;;;;29.60;28.60;;;;;10.81;56.84;99077.97;5090897;28;8883;-72
2023/04/20 02:53:07;;;;;;;;;32.00;31.75;;;;;10.78;56.85;99071.91;5025844;28;9027;-74
2023/04/20 02:55:38;;;;;;;;;37.00;30.50;;;;;10.76;56.84;99072.84;5009096;28;8864;-73
2023/04/20 02:58:18;;;;;;;;;31.40;30.80;;;;;10.75;57.08;99068.50;5025443;28;8899;-73
2023/04/20 03:01:10;;;;;;;;;34.50;31.75;;;;;10.73;56.95;99072.91;5025805;28;9645;-73
2023/04/20 03:03:40;;;;;;;;;33.60;30.40;;;;;10.69;56.81;99072.13;5012024;28;8868;-72
2023/04/20 03:06:13;;;;;;;;;32.50;28.25;;;;;10.70;57.32;99075.63;5014926;28;8863;-74
2023/04/20 03:08:48;;;;;;;;;33.25;31.00;;;;;10.61;57.14;99074.09;5010050;28;8922;-75
2023/04/20 03:11:42;;;;;;;;;33.75;31.50;;;;;10.68;56.97;99074.81;5025150;28;8829;-73
2023/04/20 03:14:15;;;;;;;;;34.00;29.25;;;;;10.49;57.61;99072.69;5007718;28;8884;-72
2023/04/20 03:16:45;;;;;;;;;36.00;33.75;;;;;10.50;57.61;99070.91;4960702;28;8860;-74
2023/04/20 03:19:14;;;;;;;;;37.75;32.00;;;;;10.47;57.46;99076.28;5008161;28;8866;-72
2023/04/20 03:21:45;;;;;;;;;33.75;32.00;;;;;10.50;57.85;99074.44;5024308;28;8844;-73
2023/04/20 03:24:15;;;;;;;;;57.75;44.50;;;;;10.42;57.85;99075.53;5008076;28;9516;-73
2023/04/20 03:26:45;;;;;;;;;39.75;37.00;;;;;10.40;58.15;99076.44;5007731;28;8844;-75
2023/04/20 03:29:16;;;;;;;;;55.00;46.00;;;;;10.36;58.24;99071.31;5012273;28;8883;-72
2023/04/20 03:31:46;;;;;;;;;39.75;35.00;;;;;10.24;58.80;99071.66;5089353;28;8835;-72
2023/04/20 03:34:15;;;;;;;;;36.50;32.00;;;;;10.25;58.51;99068.97;5089484;28;8865;-74
2023/04/20 03:36:46;;;;;;;;;34.25;32.25;;;;;10.32;58.17;99074.94;5055688;28;8930;-73
2023/04/20 03:39:15;;;;;;;;;36.50;34.50;;;;;10.30;58.39;99080.22;5064205;28;8882;-74
2023/04/20 03:41:44;;;;;;;;;44.75;37.00;;;;;10.34;58.22;99079.22;5063779;28;8863;-73
2023/04/20 03:44:13;;;;;;;;;86.67;69.33;;;;;9.97;59.90;99082.84;5063846;28;8863;-75
2023/04/20 03:46:43;;;;;;;;;33.00;26.50;;;;;10.10;59.27;99083.38;5047064;28;9543;-72
2023/04/20 03:49:11;;;;;;;;;49.25;39.75;;;;;10.08;59.45;99084.31;5063997;28;8864;-73
2023/04/20 03:51:41;;;;;;;;;44.75;40.00;;;;;10.09;59.42;99088.69;5046937;28;8844;-74
2023/04/20 03:54:11;;;;;;;;;36.00;34.00;;;;;9.81;60.80;99084.16;5014494;28;8902;-73
2023/04/20 03:56:41;;;;;;;;;104.75;94.00;;;;;9.73;61.06;99086.97;5030117;28;9053;-73
2023/04/20 03:59:10;;;;;;;;;48.25;40.75;;;;;9.49;62.10;99084.91;5046814;28;10608;-74
2023/04/20 04:01:39;;;;;;;;;44.25;40.00;;;;;9.46;62.20;99090.22;5046994;28;8875;-75
2023/04/20 04:04:08;;;;;;;;;44.50;40.00;;;;;9.51;62.06;99090.97;5028986;28;8954;-74
2023/04/20 04:06:38;;;;;;;;;42.75;39.50;;;;;9.50;62.04;99094.47;5043237;28;8862;-74
2023/04/20 04:09:08;;;;;;;;;39.50;36.50;;;;;9.37;62.61;99107.06;5026689;28;8862;-73
2023/04/20 04:11:39;;;;;;;;;56.33;47.00;;;;;9.39;62.90;99107.88;4952526;28;1230254;-74
2023/04/20 04:14:07;;;;;;;;;39.75;36.50;;;;;9.30;62.80;99095.81;5027961;28;8862;-75
2023/04/20 04:16:38;;;;;;;;;41.50;39.75;;;;;8.91;64.88;99103.66;5043429;28;8943;-74
2023/04/20 04:19:07;;;;;;;;;43.50;37.50;;;;;8.75;65.32;99107.53;5002795;28;8877;-73
2023/04/20 04:21:36;;;;;;;;;40.00;37.75;;;;;9.03;64.60;99103.41;5086450;28;8846;-74
2023/04/20 04:24:06;;;;;;;;;41.75;38.50;;;;;9.00;64.48;99106.09;5052667;28;8873;-74
2023/04/20 04:26:57;;;;;;;;;61.50;47.25;;;;;9.17;63.94;99100.47;5041032;28;8878;-73
2023/04/20 04:29:27;;;;;;;;;39.00;38.25;;;;;9.12;63.97;99102.34;5069283;28;8846;-75
2023/04/20 04:32:04;;;;;;;;;44.75;40.25;;;;;9.47;63.09;99107.69;5069001;28;8858;-74
2023/04/20 04:34:33;;;;;;;;;42.25;39.75;;;;;9.53;63.02;99112.78;5068918;28;9028;-74
2023/04/20 04:37:03;;;;;;;;;45.50;39.50;;;;;9.03;64.96;99107.81;5072662;28;8818;-75
2023/04/20 04:39:45;;;;;;;;;49.50;40.25;;;;;8.80;65.97;99117.00;5069217;28;8849;-75
2023/04/20 04:42:23;;;;;;;;;43.25;39.75;;;;;8.64;66.54;99116.44;5022039;28;9568;-75
2023/04/20 04:44:52;;;;;;;;;62.50;50.50;;;;;8.47;67.40;99126.41;5069479;28;8881;-73
2023/04/20 04:47:28;;;;;;;;;51.25;44.50;;;;;8.32;68.56;99126.69;5072837;28;8838;-73
2023/04/20 04:49:59;;;;;;;;;49.50;41.50;;;;;7.81;70.30;99131.00;5076362;28;9680;-73
2023/04/20 04:52:30;;;;;;;;;48.75;42.50;;;;;7.82;71.54;99140.59;5065323;28;8846;-73
2023/04/20 04:54:58;;;;;;;;;43.75;39.00;;;;;7.92;70.92;99136.06;5107189;28;8846;-76
2023/04/20 04:57:29;;;;;;;;;50.25;43.75;;;;;8.23;69.78;99133.78;5054884;28;8885;-73
2023/04/20 04:59:58;;;;;;;;;42.00;37.25;;;;;8.74;68.15;99127.63;5086214;28;8854;-75
2023/04/20 05:02:26;;;;;;;;;51.50;42.25;;;;;8.96;67.12;99124.56;5078487;28;8954;-75
2023/04/20 05:04:56;;;;;;;;;21.75;19.25;;;;;9.37;65.40;99123.63;5095693;28;8895;-74
2023/04/20 05:07:25;;;;;;;;;50.25;42.75;;;;;9.31;65.08;99131.66;5110405;28;8863;-73
2023/04/20 05:09:54;;;;;;;;;47.50;40.75;;;;;8.92;66.63;99136.00;5058094;28;8840;-73
2023/04/20 05:12:24;;;;;;;;;47.00;41.25;;;;;8.95;66.69;99134.19;5103883;28;8850;-73
2023/04/20 05:14:54;;;;;;;;;45.75;39.25;;;;;9.21;66.00;99133.63;5071585;28;8922;-74
2023/04/20 05:17:23;;;;;;;;;48.25;41.00;;;;;9.02;66.68;99135.75;5071548;28;8865;-75
2023/04/20 05:19:52;;;;;;;;;44.25;39.25;;;;;9.02;66.73;99135.75;5038798;28;8842;-74
2023/04/20 05:22:21;;;;;;;;;40.75;39.50;;;;;8.69;68.11;99136.47;5088734;28;9008;-73
2023/04/20 05:24:49;;;;;;;;;44.00;40.50;;;;;8.22;69.21;99144.28;5080181;28;8867;-74
2023/04/20 05:27:18;;;;;;;;;45.00;41.25;;;;;8.04;70.06;99146.34;5110266;28;8828;-73
2023/04/20 05:29:47;;;;;;;;;51.33;42.67;;;;;7.78;71.36;99146.78;5108716;28;8839;-76
2023/04/20 05:32:17;;;;;;;;;50.25;44.25;;;;;7.91;71.74;99147.44;5073982;28;8919;-71
2023/04/20 05:34:46;;;;;;;;;51.50;43.00;;;;;7.83;71.42;99146.69;5103800;28;8983;-73
2023/04/20 05:37:16;;;;;;;;;51.75;45.50;;;;;7.89;71.68;99154.44;5091051;28;8845;-75
2023/04/20 05:39:45;;;;;;;;;48.75;42.00;;;;;7.91;71.83;99154.41;5088922;28;8869;-74
2023/04/20 05:42:14;;;;;;;;;56.00;43.25;;;;;8.07;70.59;99150.66;5093159;28;9962;-74
2023/04/20 05:44:43;;;;;;;;;55.50;45.00;;;;;8.05;70.69;99155.06;5107153;28;8868;-75
2023/04/20 05:47:11;;;;;;;;;49.75;43.25;;;;;7.88;71.03;99155.34;5104606;28;8827;-74
2023/04/20 05:49:41;;;;;;;;;49.75;42.00;;;;;7.99;70.62;99155.16;5104886;28;8936;-75
2023/04/20 05:52:11;;;;;;;;;52.75;41.00;;;;;7.80;70.42;99157.22;5086044;28;8847;-74
2023/04/20 05:54:39;;;;;;;;;45.00;40.75;;;;;7.94;70.54;99162.22;5109554;28;8890;-72
2023/04/20 05:57:08;;;;;;;;;63.25;46.50;;;;;7.77;70.93;99160.72;5072775;28;8953;-75
2023/04/20 05:59:37;;;;;;;;;53.25;45.00;;;;;7.90;71.18;99158.78;5106898;28;8962;-75
2023/04/20 06:02:07;;;;;;;;;56.00;45.50;;;;;8.17;69.59;99148.72;5071169;28;8842;-74
2023/04/20 06:04:36;;;;;;;;;55.00;45.50;;;;;8.10;68.73;99158.47;5089074;28;8857;-73
2023/04/20 06:07:06;;;;;;;;;49.50;42.25;;;;;8.18;69.40;99159.19;5088735;28;8922;-74
2023/04/20 06:09:35;;;;;;;;;54.00;44.75;;;;;8.12;69.57;99161.91;5088983;28;8876;-75
2023/04/20 06:12:04;;;;;;;;;53.25;44.25;;;;;8.28;69.29;99159.88;5089428;28;8915;-73
2023/04/20 06:14:33;;;;;;;;;60.25;47.50;;;;;8.19;68.40;99160.91;5037292;28;8946;-74
2023/04/20 06:17:02;;;;;;;;;44.00;38.00;;;;;8.47;67.88;99168.31;5088865;28;8934;-74
2023/04/20 06:19:31;;;;;;;;;56.75;45.75;;;;;8.35;69.11;99161.53;5087878;28;8880;-71
2023/04/20 06:22:00;;;;;;;;;57.50;47.50;;;;;8.44;68.28;99160.53;5089122;28;8868;-73
2023/04/20 06:24:30;;;;;;;;;55.00;45.50;;;;;8.86;66.38;99160.56;5088583;28;9684;-73
2023/04/20 06:26:59;;;;;;;;;50.50;44.25;;;;;8.72;66.92;99167.84;5088515;28;8857;-74
2023/04/20 06:29:27;;;;;;;;;41.00;37.50;;;;;8.52;67.35;99168.25;5088431;28;9845;-75
2023/04/20 06:31:57;;;;;;;;;46.75;43.00;;;;;8.64;67.39;99158.38;5087828;28;9654;-74
2023/04/20 06:34:25;;;;;;;;;56.00;46.25;;;;;8.89;66.78;99168.34;5088207;28;8952;-71
2023/04/20 06:36:54;;;;;;;;;55.00;45.75;;;;;8.96;66.76;99169.97;5092962;28;8879;-73
2023/04/20 06:39:24;;;;;;;;;52.25;45.50;;;;;9.22;65.96;99169.44;5101848;28;8852;-73
2023/04/20 06:41:55;;;;;;;;;58.25;48.00;;;;;9.40;64.74;99170.81;5095115;28;8828;-73
2023/04/20 06:44:24;;;;;;;;;49.50;41.00;;;;;9.05;66.55;99176.78;5099112;28;8862;-72
2023/04/20 06:46:53;;;;;;;;;55.75;44.00;;;;;8.93;66.62;99177.91;5087748;28;9655;-72
2023/04/20 06:49:21;;;;;;;;;54.25;43.25;;;;;8.88;66.24;99176.28;5092785;28;8876;-74
2023/04/20 06:51:50;;;;;;;;;47.00;41.00;;;;;9.18;65.39;99180.88;5102227;28;8908;-72
2023/04/20 06:54:19;;;;;;;;;47.75;40.25;;;;;9.21;64.23;99177.31;5090348;28;8863;-73
2023/04/20 06:56:48;;;;;;;;;57.50;45.25;;;;;9.16;65.30;99182.69;5079842;28;8858;-73
2023/04/20 06:59:19;;;;;;;;;44.25;40.00;;;;;9.19;64.17;99185.22;5101859;28;8838;-72
2023/04/20 07:01:48;;;;;;;;;52.00;42.00;;;;;9.40;63.38;99186.53;5087800;28;9651;-74
2023/04/20 07:04:17;;;;;;;;;47.25;40.00;;;;;10.13;61.77;99183.09;5088225;28;8866;-74
2023/04/20 07:06:48;;;;;;;;;51.50;42.25;;;;;10.26;60.26;99182.81;5088326;28;8865;-75
2023/04/20 07:09:19;;;;;;;;;44.75;41.00;;;;;10.30;60.33;99179.19;5087478;28;8991;-74
2023/04/20 07:11:48;;;;;;;;;48.00;41.50;;;;;10.35;59.40;99179.94;5087865;28;9730;-72
2023/04/20 07:14:19;;;;;;;;;42.25;39.50;;;;;10.17;59.35;99190.00;5088040;28;8841;-72
2023/04/20 07:16:48;;;;;;;;;38.25;36.50;;;;;10.08;59.84;99184.13;5051699;28;8842;-72
2023/04/20 07:19:16;;;;;;;;;46.50;41.25;;;;;10.60;58.40;99188.91;5101995;28;8834;-72
2023/04/20 07:21:46;;;;;;;;;50.00;41.00;;;;;10.30;58.76;99189.72;5036475;28;8830;-74
2023/04/20 07:24:14;;;;;;;;;47.50;39.75;;;;;10.83;57.91;99182.19;5087416;28;8881;-75
2023/04/20 07:26:44;;;;;;;;;44.00;40.00;;;;;10.37;58.38;99180.78;5087648;28;8894;-74
2023/04/20 07:29:13;;;;;;;;;49.00;41.00;;;;;10.25;58.22;99184.56;5087877;28;8871;-74
2023/04/20 07:31:43;;;;;;;;;52.00;42.50;;;;;10.66;57.30;99182.63;5076797;28;8852;-75
2023/04/20 07:34:12;;;;;;;;;46.50;39.00;;;;;11.10;56.54;99185.78;5089883;28;8843;-73
2023/04/20 07:36:40;;;;;;;;;45.00;40.00;;;;;11.42;55.21;99175.22;5108164;28;8894;-74
2023/04/20 07:39:09;;;;;;;;;46.50;39.75;;;;;11.00;55.48;99191.38;5059127;28;8877;-72
2023/04/20 07:41:38;;;;;;;;;46.50;38.00;;;;;10.71;56.65;99185.13;5087477;28;9068;-74
2023/04/20 07:44:07;;;;;;;;;36.50;35.75;;;;;11.03;55.76;99184.25;5087411;28;9563;-73
2023/04/20 07:46:36;;;;;;;;;45.25;38.25;;;;;11.15;56.00;99186.53;5086797;28;8884;-73
2023/04/20 07:49:06;;;;;;;;;51.25;42.50;;;;;11.32;56.88;99182.53;5080388;28;8970;-74
2023/04/20 07:51:35;;;;;;;;;62.75;48.00;;;;;11.24;55.68;99187.16;5093267;28;8844;-68
2023/04/20 07:54:04;;;;;;;;;54.25;42.25;;;;;11.24;56.06;99190.66;5094993;28;8838;-74
2023/04/20 07:56:33;;;;;;;;;51.75;42.50;;;;;11.73;55.38;99183.91;5054373;28;8863;-72
2023/04/20 07:59:01;;;;;;;;;54.75;44.50;;;;;11.52;56.44;99184.56;5106544;28;8835;-72
2023/04/20 08:01:30;;;;;;;;;48.75;41.75;;;;;11.09;56.43;99183.22;5051790;28;8866;-72
2023/04/20 08:03:59;;;;;;;;;43.00;38.50;;;;;11.50;54.82;99179.38;5087483;28;8872;-71
2023/04/20 08:06:30;;;;;;;;;45.00;39.25;;;;;12.00;53.95;99185.75;5069830;28;8992;-71
2023/04/20 08:08:59;;;;;;;;;51.25;42.25;;;;;11.86;54.74;99180.91;5087369;28;8919;-72
2023/04/20 08:11:28;;;;;;;;;44.00;39.00;;;;;12.05;53.26;99187.31;5035911;28;8866;-71
2023/04/20 08:13:57;;;;;;;;;46.75;38.75;;;;;12.61;51.65;99188.91;5087315;28;8926;-72
2023/04/20 08:16:26;;;;;;;;;45.75;38.00;;;;;13.12;50.25;99182.69;5087148;28;8849;-73
2023/04/20 08:18:55;;;;;;;;;43.25;39.00;;;;;12.44;51.73;99189.50;5087308;28;8895;-72
2023/04/20 08:21:23;;;;;;;;;50.50;42.50;;;;;12.16;52.35;99189.56;5052813;28;8892;-71
2023/04/20 08:23:55;;;;;;;;;43.00;39.25;;;;;12.07;52.66;99189.88;5092624;28;9936;-72
2023/04/20 08:26:24;;;;;;;;;44.75;38.00;;;;;11.75;52.13;99194.41;5091091;28;8862;-73
2023/04/20 08:28:53;;;;;;;;;48.75;39.25;;;;;11.84;52.55;99183.59;5072668;28;8940;-72
2023/04/20 08:31:21;;;;;;;;;49.00;41.50;;;;;12.11;52.30;99183.63;5055021;28;8868;-71
2023/04/20 08:33:51;;;;;;;;;41.25;38.00;;;;;11.67;53.02;99191.13;5090878;28;8910;-73
2023/04/20 08:36:20;;;;;;;;;54.00;44.00;;;;;11.68;53.25;99198.13;5090883;28;8882;-72
2023/04/20 08:38:57;;;;;;;;;46.00;41.50;;;;;12.04;51.71;99187.34;5091019;28;8872;-72
2023/04/20 08:41:26;;;;;;;;;52.50;41.75;;;;;11.73;53.49;99180.41;5090595;28;8866;-73
2023/04/20 08:43:55;;;;;;;;;47.00;38.00;;;;;11.78;53.79;99178.47;5090761;28;8829;-71
2023/04/20 08:46:24;;;;;;;;;50.75;42.50;;;;;12.32;52.12;99182.03;5090516;28;8877;-73
2023/04/20 08:48:55;;;;;;;;;33.75;31.25;;;;;12.47;51.38;99197.31;5090377;28;8833;-72
2023/04/20 08:51:24;;;;;;;;;39.50;36.50;;;;;11.80;52.96;99186.34;5090434;28;8951;-72
2023/04/20 08:53:55;;;;;;;;;47.25;40.50;;;;;12.33;51.31;99187.25;5090319;28;8862;-72
2023/04/20 08:56:34;;;;;;;;;39.50;36.25;;;;;13.21;49.59;99184.16;5090238;28;8845;-72
2023/04/20 08:59:04;;;;;;;;;36.25;35.75;;;;;12.82;45.28;99197.84;5090444;28;9004;-71
2023/04/20 09:01:34;;;;;;;;;32.50;30.25;;;;;13.25;44.03;99185.75;5071756;28;8849;-72
2023/04/20 09:04:15;;;;;;;;;30.00;29.40;;;;;14.00;42.49;99181.97;5005850;28;9691;-72
2023/04/20 09:06:45;;;;;;;;;29.60;28.40;;;;;14.34;42.00;99180.56;5104785;28;8879;-70
2023/04/20 09:09:16;;;;;;;;;4.50;1.75;;;;;14.60;42.38;99186.50;5104622;28;10216;-72
2023/04/20 09:11:45;;;;;;;;;36.50;33.25;;;;;14.93;41.62;99178.91;5092744;28;8850;-72
2023/04/20 09:14:16;;;;;;;;;35.00;32.75;;;;;15.10;39.94;99177.31;5096163;28;8810;-73
2023/04/20 09:16:50;;;;;;;;;33.80;32.80;;;;;14.83;39.78;99175.81;5099100;28;8844;-72
2023/04/20 09:19:23;;;;;;;;;35.75;33.75;;;;;14.57;40.09;99184.88;5096052;28;8872;-71
2023/04/20 09:21:54;;;;;;;;;32.60;30.60;;;;;14.90;40.60;99176.38;5100866;28;8847;-71
2023/04/20 09:24:31;;;;;;;;;30.25;29.50;;;;;15.24;39.44;99175.75;5103619;28;9022;-71
2023/04/20 09:27:01;;;;;;;;;31.80;27.80;;;;;15.35;39.72;99175.22;5089395;28;8950;-73
2023/04/20 09:29:30;;;;;;;;;33.00;32.00;;;;;15.51;39.20;99171.84;5089431;28;8869;-75
2023/04/20 09:31:59;;;;;;;;;36.50;34.75;;;;;15.01;40.43;99173.28;5076800;28;8854;-74
2023/04/20 09:34:29;;;;;;;;;33.00;31.75;;;;;15.44;40.46;99177.44;5076880;28;8844;-75
2023/04/20 09:36:57;;;;;;;;;31.25;30.00;;;;;15.67;39.50;99183.47;5052364;28;8913;-76
2023/04/20 09:39:29;;;;;;;;;39.00;32.50;;;;;15.98;38.47;99176.69;5063480;28;8846;-74
2023/04/20 09:42:04;;;;;;;;;35.00;33.25;;;;;15.88;38.45;99172.78;5099226;28;8859;-75
2023/04/20 09:44:34;;;;;;;;;28.80;28.00;;;;;15.84;37.84;99172.06;5085160;28;8862;-74
2023/04/20 09:47:03;;;;;;;;;30.60;26.80;;;;;16.04;36.76;99165.78;5097176;28;8928;-76
2023/04/20 09:49:32;;;;;;;;;26.40;23.60;;;;;16.45;36.30;99169.97;5095828;28;9704;-74
2023/04/20 09:52:02;;;;;;;;;30.60;26.80;;;;;16.52;36.26;99166.06;5088064;28;8866;-75
2023/04/20 09:54:33;;;;;;;;;31.80;29.40;;;;;16.60;36.17;99166.50;5109766;28;8840;-74
2023/04/20 09:57:03;;;;;;;;;32.40;28.80;;;;;16.76;35.87;99167.44;5091037;28;8855;-75
2023/04/20 09:59:33;;;;;;;;;32.80;29.60;;;;;16.65;36.33;99176.91;5109614;28;8848;-74
2023/04/20 10:02:02;;;;;;;;;31.00;28.60;;;;;16.88;35.80;99173.03;5109341;28;8843;-76
2023/04/20 10:04:31;;;;;;;;;29.20;29.20;;;;;17.16;35.20;99165.28;5109750;28;8844;-73
2023/04/20 10:07:04;;;;;;;;;32.80;30.60;;;;;17.27;35.08;99163.88;5111604;28;8855;-73
2023/04/20 10:09:36;;;;;;;;;27.00;23.80;;;;;17.04;34.25;99165.97;5112878;28;9678;-76
2023/04/20 10:12:06;;;;;;;;;28.60;27.60;;;;;17.24;34.17;99159.56;5113647;28;8848;-75
2023/04/20 10:14:35;;;;;;;;;23.00;21.40;;;;;17.39;34.50;99168.53;5092201;28;8832;-75
2023/04/20 10:17:06;;;;;;;;;29.60;26.00;;;;;17.16;33.70;99164.44;5109852;28;8852;-75
2023/04/20 10:19:40;;;;;;;;;30.00;29.00;;;;;17.56;34.01;99149.84;5109792;28;9005;-76
2023/04/20 10:22:10;;;;;;;;;31.20;28.40;;;;;17.62;34.04;99153.09;5091239;28;8847;-74
2023/04/20 10:24:41;;;;;;;;;29.25;28.00;;;;;16.03;35.70;99159.59;5108594;28;8959;-73
2023/04/20 10:27:19;;;;;;;;;32.50;29.00;;;;;15.87;36.52;99145.41;5073620;28;8848;-75
2023/04/20 10:29:48;;;;;;;;;28.20;26.00;;;;;16.47;35.92;99144.22;5107954;28;8893;-77
2023/04/20 10:32:24;;;;;;;;;29.00;27.20;;;;;16.88;35.16;99150.00;5108827;28;8852;-75
2023/04/20 10:35:05;;;;;;;;;27.75;25.75;;;;;15.66;35.79;99144.66;5108941;28;8854;-76
2023/04/20 10:37:34;;;;;;;;;32.00;29.40;;;;;15.59;36.76;99146.72;5085422;28;8880;-74
2023/04/20 10:40:07;;;;;;;;;22.60;21.40;;;;;16.16;34.71;99133.34;5108730;28;8871;-74
2023/04/20 10:42:45;;;;;;;;;17.80;16.80;;;;;16.34;32.53;99135.97;5107824;28;8979;-73
2023/04/20 10:45:14;;;;;;;;;18.40;17.20;;;;;16.68;32.59;99140.44;5109040;28;8905;-74
2023/04/20 10:47:44;;;;;;;;;22.60;19.20;;;;;16.96;32.84;99138.97;5108368;28;8900;-74
2023/04/20 10:50:15;;;;;;;;;23.80;20.60;;;;;17.11;32.66;99134.63;5093971;28;8846;-74
2023/04/20 10:52:44;;;;;;;;;21.80;21.00;;;;;17.43;32.35;99127.53;5070301;28;8892;-74
2023/04/20 10:55:20;;;;;;;;;22.40;19.40;;;;;17.78;31.88;99128.22;5052228;28;8857;-74
2023/04/20 10:57:50;;;;;;;;;39.50;34.50;;;;;17.80;30.94;99130.78;5088002;28;8868;-75
2023/04/20 11:00:21;;;;;;;;;22.80;22.40;;;;;17.77;30.67;99126.47;5087875;28;9973;-75
2023/04/20 11:02:51;;;;;;;;;28.75;25.25;;;;;17.78;31.02;99122.03;5044842;28;8885;-75
2023/04/20 11:05:23;;;;;;;;;34.80;31.60;;;;;17.76;31.02;99130.09;5044233;28;8857;-74
2023/04/20 11:07:52;;;;;;;;;19.00;17.60;;;;;17.29;30.45;99125.66;5043527;28;8857;-74
2023/04/20 11:10:24;;;;;;;;;15.20;14.60;;;;;17.55;29.29;99132.19;5043068;28;9550;-74
2023/04/20 11:12:53;;;;;;;;;14.60;13.60;;;;;17.80;29.35;99120.16;5043816;28;8866;-74
2023/04/20 11:15:31;;;;;;;;;18.00;18.00;;;;;18.42;29.50;99105.91;5043568;28;8856;-74
2023/04/20 11:18:07;;;;;;;;;16.80;16.20;;;;;18.71;29.10;99107.63;5032286;28;8916;-73
2023/04/20 11:20:36;;;;;;;;;22.60;22.40;;;;;17.86;30.40;99116.28;5043743;28;8947;-74
2023/04/20 11:23:05;;;;;;;;;23.60;19.00;;;;;18.34;30.79;99109.88;5054433;28;9004;-73
2023/04/20 11:25:36;;;;;;;;;21.40;20.40;;;;;17.42;31.54;99114.34;5046450;28;8846;-74
2023/04/20 11:28:07;;;;;;;;;21.00;21.00;;;;;17.28;32.19;99115.13;5044566;28;8874;-74
2023/04/20 11:30:40;;;;;;;;;18.00;18.00;;;;;17.58;31.49;99118.69;5044740;28;8881;-73
2023/04/20 11:33:10;;;;;;;;;17.60;17.00;;;;;17.94;31.12;99109.56;5004713;28;8894;-74
2023/04/20 11:35:41;;;;;;;;;15.80;14.60;;;;;18.19;31.17;99115.25;5096161;28;8872;-74
2023/04/20 11:38:10;;;;;;;;;20.00;16.80;;;;;18.33;31.18;99110.84;5086138;28;8978;-75
2023/04/20 11:40:40;;;;;;;;;21.60;19.40;;;;;18.62;31.13;99107.34;5106315;28;8866;-75